sensor_id;sensor_type;location;lat;lon;timestamp;pressure;altitude;pressure_sealevel;temperature;humidity
62800;BME280;48842;51.046;13.796;2022-07-01T00:00:55;99881.94;;;25.55;60.29
62800;BME280;48842;51.046;13.796;2022-07-01T00:03:20;99890.00;;;25.55;60.55
62800;BME280;48842;51.046;13.796;2022-07-01T00:05:45;99883.78;;;25.54;60.59
62800;BME280;48842;51.046;13.796;2022-07-01T00:08:11;99875.94;;;25.51;61.10
62800;BME280;48842;51.046;13.796;2022-07-01T00:10:36;99874.19;;;25.50;61.11
62800;BME280;48842;51.046;13.796;2022-07-01T00:13:03;99875.16;;;25.49;60.84
62800;BME280;48842;51.046;13.796;2022-07-01T00:15:28;99871.72;;;25.47;60.56
62800;BME280;48842;51.046;13.796;2022-07-01T00:17:53;99864.63;;;25.46;60.71
62800;BME280;48842;51.046;13.796;2022-07-01T00:20:19;99866.56;;;25.44;60.94
62800;BME280;48842;51.046;13.796;2022-07-01T00:22:44;99865.69;;;25.43;60.89
62800;BME280;48842;51.046;13.796;2022-07-01T00:25:10;99862.34;;;25.40;60.63
62800;BME280;48842;51.046;13.796;2022-07-01T00:27:39;99855.25;;;25.39;60.83
62800;BME280;48842;51.046;13.796;2022-07-01T00:30:05;99850.88;;;25.38;60.64
62800;BME280;48842;51.046;13.796;2022-07-01T00:32:30;99853.63;;;25.36;61.02
62800;BME280;48842;51.046;13.796;2022-07-01T00:34:55;99858.16;;;25.36;60.77
62800;BME280;48842;51.046;13.796;2022-07-01T00:37:21;99857.41;;;25.34;61.12
62800;BME280;48842;51.046;13.796;2022-07-01T00:39:46;99862.88;;;25.32;61.46
62800;BME280;48842;51.046;13.796;2022-07-01T00:42:11;99869.25;;;25.30;61.06
62800;BME280;48842;51.046;13.796;2022-07-01T00:44:36;99862.16;;;25.29;61.17
62800;BME280;48842;51.046;13.796;2022-07-01T00:47:03;99859.59;;;25.27;60.99
62800;BME280;48842;51.046;13.796;2022-07-01T00:49:32;99859.69;;;25.25;61.03
62800;BME280;48842;51.046;13.796;2022-07-01T00:51:57;99859.78;;;25.24;61.09
62800;BME280;48842;51.046;13.796;2022-07-01T00:54:23;99860.84;;;25.21;61.22
62800;BME280;48842;51.046;13.796;2022-07-01T00:56:48;99852.91;;;25.20;61.07
62800;BME280;48842;51.046;13.796;2022-07-01T00:59:14;99849.47;;;25.18;61.19
62800;BME280;48842;51.046;13.796;2022-07-01T01:01:40;99854.06;;;25.16;61.12
62800;BME280;48842;51.046;13.796;2022-07-01T01:04:05;99855.03;;;25.15;61.36
62800;BME280;48842;51.046;13.796;2022-07-01T01:06:31;99857.81;;;25.13;61.05
62800;BME280;48842;51.046;13.796;2022-07-01T01:08:56;99850.63;;;25.14;61.27
62800;BME280;48842;51.046;13.796;2022-07-01T01:11:21;99840.84;;;25.13;61.29
62800;BME280;48842;51.046;13.796;2022-07-01T01:13:47;99838.47;;;25.08;61.26
62800;BME280;48842;51.046;13.796;2022-07-01T01:16:16;99829.69;;;25.06;61.58
62800;BME280;48842;51.046;13.796;2022-07-01T01:18:42;99824.41;;;25.04;61.58
62800;BME280;48842;51.046;13.796;2022-07-01T01:21:08;99822.78;;;25.02;61.67
62800;BME280;48842;51.046;13.796;2022-07-01T01:23:33;99819.34;;;25.00;61.73
62800;BME280;48842;51.046;13.796;2022-07-01T01:25:58;99820.41;;;24.97;61.74
62800;BME280;48842;51.046;13.796;2022-07-01T01:28:24;99815.25;;;24.94;61.51
62800;BME280;48842;51.046;13.796;2022-07-01T01:30:50;99809.13;;;24.92;61.71
62800;BME280;48842;51.046;13.796;2022-07-01T01:33:15;99809.22;;;24.90;61.74
62800;BME280;48842;51.046;13.796;2022-07-01T01:35:40;99811.16;;;24.88;61.87
62800;BME280;48842;51.046;13.796;2022-07-01T01:38:06;99806.00;;;24.85;61.55
62800;BME280;48842;51.046;13.796;2022-07-01T01:40:31;99805.31;;;24.82;61.86
62800;BME280;48842;51.046;13.796;2022-07-01T01:42:56;99808.09;;;24.80;61.81
62800;BME280;48842;51.046;13.796;2022-07-01T01:45:22;99807.16;;;24.81;61.91
62800;BME280;48842;51.046;13.796;2022-07-01T01:47:47;99801.78;;;24.81;62.06
62800;BME280;48842;51.046;13.796;2022-07-01T01:50:14;99803.69;;;24.79;61.83
62800;BME280;48842;51.046;13.796;2022-07-01T01:52:39;99805.72;;;24.76;61.72
62800;BME280;48842;51.046;13.796;2022-07-01T01:55:08;99798.72;;;24.73;61.87
62800;BME280;48842;51.046;13.796;2022-07-01T01:57:34;99798.81;;;24.71;61.69
62800;BME280;48842;51.046;13.796;2022-07-01T01:59:59;99795.28;;;24.71;61.94
62800;BME280;48842;51.046;13.796;2022-07-01T02:02:24;99801.69;;;24.68;61.83
62800;BME280;48842;51.046;13.796;2022-07-01T02:04:49;99799.88;;;24.69;62.17
62800;BME280;48842;51.046;13.796;2022-07-01T02:07:15;99796.44;;;24.67;61.98
62800;BME280;48842;51.046;13.796;2022-07-01T02:09:40;99800.06;;;24.66;62.12
62800;BME280;48842;51.046;13.796;2022-07-01T02:12:06;99803.69;;;24.65;62.02
62800;BME280;48842;51.046;13.796;2022-07-01T02:14:31;99809.16;;;24.63;62.19
62800;BME280;48842;51.046;13.796;2022-07-01T02:16:56;99807.56;;;24.61;62.11
62800;BME280;48842;51.046;13.796;2022-07-01T02:19:21;99816.53;;;24.60;62.28
62800;BME280;48842;51.046;13.796;2022-07-01T02:21:47;99818.44;;;24.57;62.13
62800;BME280;48842;51.046;13.796;2022-07-01T02:24:12;99816.81;;;24.55;62.35
62800;BME280;48842;51.046;13.796;2022-07-01T02:26:37;99815.91;;;24.54;62.17
62800;BME280;48842;51.046;13.796;2022-07-01T02:29:02;99824.16;;;24.51;62.14
62800;BME280;48842;51.046;13.796;2022-07-01T02:31:28;99835.06;;;24.48;62.06
62800;BME280;48842;51.046;13.796;2022-07-01T02:33:53;99845.88;;;24.47;62.12
62800;BME280;48842;51.046;13.796;2022-07-01T02:36:18;99843.19;;;24.47;62.14
62800;BME280;48842;51.046;13.796;2022-07-01T02:38:43;99837.94;;;24.45;62.11
62800;BME280;48842;51.046;13.796;2022-07-01T02:41:09;99847.88;;;24.43;62.25
62800;BME280;48842;51.046;13.796;2022-07-01T02:43:35;99851.50;;;24.42;62.33
62800;BME280;48842;51.046;13.796;2022-07-01T02:46:00;99839.06;;;24.41;62.21
62800;BME280;48842;51.046;13.796;2022-07-01T02:48:26;99837.38;;;24.40;62.35
62800;BME280;48842;51.046;13.796;2022-07-01T02:50:51;99841.84;;;24.39;62.44
62800;BME280;48842;51.046;13.796;2022-07-01T02:53:16;99848.16;;;24.38;62.42
62800;BME280;48842;51.046;13.796;2022-07-01T02:55:41;99859.94;;;24.36;62.60
62800;BME280;48842;51.046;13.796;2022-07-01T02:58:07;99860.03;;;24.34;62.54
62800;BME280;48842;51.046;13.796;2022-07-01T03:00:32;99855.63;;;24.33;62.24
62800;BME280;48842;51.046;13.796;2022-07-01T03:02:57;99858.28;;;24.33;62.40
62800;BME280;48842;51.046;13.796;2022-07-01T03:05:23;99858.41;;;24.32;62.59
62800;BME280;48842;51.046;13.796;2022-07-01T03:07:48;99853.03;;;24.32;62.76
62800;BME280;48842;51.046;13.796;2022-07-01T03:10:13;99861.06;;;24.32;62.65
62800;BME280;48842;51.046;13.796;2022-07-01T03:12:38;99864.59;;;24.32;62.45
62800;BME280;48842;51.046;13.796;2022-07-01T03:15:09;99860.22;;;24.31;62.47
62800;BME280;48842;51.046;13.796;2022-07-01T03:17:36;99862.00;;;24.31;62.65
62800;BME280;48842;51.046;13.796;2022-07-01T03:20:03;99859.34;;;24.31;62.48
62800;BME280;48842;51.046;13.796;2022-07-01T03:22:30;99855.81;;;24.30;62.58
62800;BME280;48842;51.046;13.796;2022-07-01T03:24:57;99865.56;;;24.31;62.42
62800;BME280;48842;51.046;13.796;2022-07-01T03:27:23;99870.16;;;24.29;62.27
62800;BME280;48842;51.046;13.796;2022-07-01T03:29:48;99870.16;;;24.29;62.48
62800;BME280;48842;51.046;13.796;2022-07-01T03:32:14;99873.75;;;24.28;62.41
62800;BME280;48842;51.046;13.796;2022-07-01T03:34:44;99874.75;;;24.27;62.35
62800;BME280;48842;51.046;13.796;2022-07-01T03:37:12;99871.19;;;24.27;62.38
62800;BME280;48842;51.046;13.796;2022-07-01T03:39:38;99874.75;;;24.27;62.40
62800;BME280;48842;51.046;13.796;2022-07-01T03:42:05;99873.88;;;24.27;62.31
62800;BME280;48842;51.046;13.796;2022-07-01T03:44:32;99879.22;;;24.27;62.22
62800;BME280;48842;51.046;13.796;2022-07-01T03:46:57;99873.09;;;24.25;62.58
62800;BME280;48842;51.046;13.796;2022-07-01T03:49:23;99879.22;;;24.27;62.34
62800;BME280;48842;51.046;13.796;2022-07-01T03:51:49;99885.44;;;24.27;62.47
62800;BME280;48842;51.046;13.796;2022-07-01T03:54:15;99878.28;;;24.28;62.66
62800;BME280;48842;51.046;13.796;2022-07-01T03:57:07;99889.91;;;24.27;62.65
62800;BME280;48842;51.046;13.796;2022-07-01T03:59:35;99886.31;;;24.28;62.60
62800;BME280;48842;51.046;13.796;2022-07-01T04:02:02;99895.09;;;24.30;62.71
62800;BME280;48842;51.046;13.796;2022-07-01T04:04:28;99900.38;;;24.31;62.78
62800;BME280;48842;51.046;13.796;2022-07-01T04:06:54;99906.41;;;24.35;62.82
62800;BME280;48842;51.046;13.796;2022-07-01T04:09:20;99911.56;;;24.38;62.64
62800;BME280;48842;51.046;13.796;2022-07-01T04:11:48;99919.41;;;24.41;62.53
62800;BME280;48842;51.046;13.796;2022-07-01T04:14:14;99922.88;;;24.43;62.70
62800;BME280;48842;51.046;13.796;2022-07-01T04:16:40;99915.50;;;24.47;62.57
62800;BME280;48842;51.046;13.796;2022-07-01T04:19:05;99922.50;;;24.49;62.36
62800;BME280;48842;51.046;13.796;2022-07-01T04:21:31;99927.84;;;24.49;62.37
62800;BME280;48842;51.046;13.796;2022-07-01T04:24:15;99934.94;;;24.50;61.96
62800;BME280;48842;51.046;13.796;2022-07-01T04:26:41;99938.56;;;24.49;62.00
62800;BME280;48842;51.046;13.796;2022-07-01T04:29:07;99942.09;;;24.50;61.97
62800;BME280;48842;51.046;13.796;2022-07-01T04:31:36;99949.09;;;24.52;62.09
62800;BME280;48842;51.046;13.796;2022-07-01T04:34:01;99947.16;;;24.54;62.26
62800;BME280;48842;51.046;13.796;2022-07-01T04:36:27;99946.13;;;24.57;61.87
62800;BME280;48842;51.046;13.796;2022-07-01T04:38:52;99950.38;;;24.61;61.98
62800;BME280;48842;51.046;13.796;2022-07-01T04:41:18;99950.28;;;24.63;61.72
62800;BME280;48842;51.046;13.796;2022-07-01T04:44:02;99936.78;;;24.64;61.78
62800;BME280;48842;51.046;13.796;2022-07-01T04:46:27;99941.19;;;24.65;61.68
62800;BME280;48842;51.046;13.796;2022-07-01T04:48:52;99944.72;;;24.66;61.61
62800;BME280;48842;51.046;13.796;2022-07-01T04:51:19;99943.69;;;24.68;61.85
62800;BME280;48842;51.046;13.796;2022-07-01T04:53:44;99951.63;;;24.70;61.58
62800;BME280;48842;51.046;13.796;2022-07-01T04:56:09;99953.34;;;24.71;61.51
62800;BME280;48842;51.046;13.796;2022-07-01T04:58:34;99955.84;;;24.74;61.89
62800;BME280;48842;51.046;13.796;2022-07-01T05:01:00;99952.22;;;24.75;61.76
62800;BME280;48842;51.046;13.796;2022-07-01T05:03:25;99948.47;;;24.78;61.38
62800;BME280;48842;51.046;13.796;2022-07-01T05:05:50;99954.63;;;24.80;61.48
62800;BME280;48842;51.046;13.796;2022-07-01T05:08:15;99962.56;;;24.81;61.60
62800;BME280;48842;51.046;13.796;2022-07-01T05:10:41;99963.31;;;24.83;61.31
62800;BME280;48842;51.046;13.796;2022-07-01T05:13:06;99961.31;;;24.87;61.48
62800;BME280;48842;51.046;13.796;2022-07-01T05:15:32;99962.81;;;24.91;61.43
62800;BME280;48842;51.046;13.796;2022-07-01T05:17:57;99974.13;;;24.96;61.73
62800;BME280;48842;51.046;13.796;2022-07-01T05:20:41;99982.72;;;25.01;61.37
62800;BME280;48842;51.046;13.796;2022-07-01T05:23:25;99980.84;;;25.03;60.64
62800;BME280;48842;51.046;13.796;2022-07-01T05:25:50;99993.09;;;25.07;60.82
62800;BME280;48842;51.046;13.796;2022-07-01T05:28:15;99991.84;;;25.13;60.79
62800;BME280;48842;51.046;13.796;2022-07-01T05:30:41;99990.69;;;25.17;60.39
62800;BME280;48842;51.046;13.796;2022-07-01T05:33:06;99986.75;;;25.23;60.12
62800;BME280;48842;51.046;13.796;2022-07-01T05:35:31;99990.78;;;25.30;60.04
62800;BME280;48842;51.046;13.796;2022-07-01T05:37:57;99998.75;;;25.32;59.29
62800;BME280;48842;51.046;13.796;2022-07-01T05:40:23;99991.91;;;25.26;57.88
62800;BME280;48842;51.046;13.796;2022-07-01T05:42:48;99988.81;;;25.34;57.80
62800;BME280;48842;51.046;13.796;2022-07-01T05:45:13;99993.56;;;25.43;57.44
62800;BME280;48842;51.046;13.796;2022-07-01T05:47:51;99991.47;;;25.48;56.75
62800;BME280;48842;51.046;13.796;2022-07-01T05:50:21;99993.88;;;25.38;56.43
62800;BME280;48842;51.046;13.796;2022-07-01T05:52:47;99998.19;;;25.55;56.68
62800;BME280;48842;51.046;13.796;2022-07-01T05:55:12;100002.66;;;25.55;56.29
62800;BME280;48842;51.046;13.796;2022-07-01T05:57:37;100006.97;;;25.57;56.20
62800;BME280;48842;51.046;13.796;2022-07-01T06:00:03;99995.13;;;25.47;56.04
62800;BME280;48842;51.046;13.796;2022-07-01T06:02:29;100001.81;;;25.54;56.07
62800;BME280;48842;51.046;13.796;2022-07-01T06:04:54;100005.03;;;25.59;56.29
62800;BME280;48842;51.046;13.796;2022-07-01T06:07:19;100009.06;;;25.52;55.99
62800;BME280;48842;51.046;13.796;2022-07-01T06:09:45;100003.72;;;25.52;56.09
62800;BME280;48842;51.046;13.796;2022-07-01T06:12:10;100001.41;;;25.60;56.12
62800;BME280;48842;51.046;13.796;2022-07-01T06:14:35;100010.22;;;25.63;55.94
62800;BME280;48842;51.046;13.796;2022-07-01T06:17:02;100007.72;;;25.59;56.25
62800;BME280;48842;51.046;13.796;2022-07-01T06:19:27;100026.50;;;25.45;55.73
62800;BME280;48842;51.046;13.796;2022-07-01T06:21:53;100034.56;;;25.16;57.02
62800;BME280;48842;51.046;13.796;2022-07-01T06:24:18;100023.63;;;25.19;56.63
62800;BME280;48842;51.046;13.796;2022-07-01T06:26:43;100015.59;;;25.19;56.59
62800;BME280;48842;51.046;13.796;2022-07-01T06:29:08;100021.31;;;25.27;56.66
62800;BME280;48842;51.046;13.796;2022-07-01T06:31:33;100015.63;;;25.34;56.19
62800;BME280;48842;51.046;13.796;2022-07-01T06:33:59;100018.19;;;25.21;56.58
62800;BME280;48842;51.046;13.796;2022-07-01T06:36:25;100027.47;;;25.30;56.49
62800;BME280;48842;51.046;13.796;2022-07-01T06:38:50;100020.38;;;25.29;56.35
62800;BME280;48842;51.046;13.796;2022-07-01T06:41:16;100018.84;;;25.24;56.08
62800;BME280;48842;51.046;13.796;2022-07-01T06:44:00;100016.16;;;25.24;56.41
62800;BME280;48842;51.046;13.796;2022-07-01T06:46:27;100014.75;;;25.33;56.37
62800;BME280;48842;51.046;13.796;2022-07-01T06:48:53;100013.50;;;25.39;56.00
62800;BME280;48842;51.046;13.796;2022-07-01T06:51:19;100008.13;;;25.39;55.99
62800;BME280;48842;51.046;13.796;2022-07-01T06:53:44;100005.34;;;25.40;56.09
62800;BME280;48842;51.046;13.796;2022-07-01T06:56:11;100008.03;;;25.40;56.03
62800;BME280;48842;51.046;13.796;2022-07-01T06:58:37;100004.31;;;25.43;56.16
62800;BME280;48842;51.046;13.796;2022-07-01T07:01:03;100015.22;;;25.40;55.88
62800;BME280;48842;51.046;13.796;2022-07-01T07:03:28;100019.44;;;25.30;56.10
62800;BME280;48842;51.046;13.796;2022-07-01T07:05:53;100025.38;;;25.20;56.12
62800;BME280;48842;51.046;13.796;2022-07-01T07:08:19;100024.28;;;25.23;55.97
62800;BME280;48842;51.046;13.796;2022-07-01T07:10:44;100026.88;;;25.24;56.36
62800;BME280;48842;51.046;13.796;2022-07-01T07:13:09;100036.84;;;25.22;56.41
62800;BME280;48842;51.046;13.796;2022-07-01T07:15:34;100037.59;;;25.24;56.34
62800;BME280;48842;51.046;13.796;2022-07-01T07:18:00;100043.94;;;25.09;56.71
62800;BME280;48842;51.046;13.796;2022-07-01T07:20:25;100053.63;;;25.12;56.98
62800;BME280;48842;51.046;13.796;2022-07-01T07:22:51;100058.59;;;25.18;57.05
62800;BME280;48842;51.046;13.796;2022-07-01T07:25:17;100058.50;;;25.19;56.95
62800;BME280;48842;51.046;13.796;2022-07-01T07:27:42;100067.97;;;25.25;56.66
62800;BME280;48842;51.046;13.796;2022-07-01T07:30:14;100070.34;;;25.15;56.46
62800;BME280;48842;51.046;13.796;2022-07-01T07:32:39;100076.84;;;25.11;56.17
62800;BME280;48842;51.046;13.796;2022-07-01T07:35:05;100079.41;;;24.98;56.59
62800;BME280;48842;51.046;13.796;2022-07-01T07:37:31;100078.16;;;24.89;56.60
62800;BME280;48842;51.046;13.796;2022-07-01T07:39:57;100082.38;;;24.94;56.67
62800;BME280;48842;51.046;13.796;2022-07-01T07:42:23;100082.75;;;24.87;56.77
62800;BME280;48842;51.046;13.796;2022-07-01T07:44:48;100106.66;;;24.76;56.91
62800;BME280;48842;51.046;13.796;2022-07-01T07:47:13;100106.91;;;24.55;57.17
62800;BME280;48842;51.046;13.796;2022-07-01T07:49:38;100108.41;;;24.45;57.34
62800;BME280;48842;51.046;13.796;2022-07-01T07:52:04;100114.78;;;24.58;57.05
62800;BME280;48842;51.046;13.796;2022-07-01T07:54:29;100128.91;;;24.62;57.19
62800;BME280;48842;51.046;13.796;2022-07-01T07:56:54;100128.72;;;24.65;57.13
62800;BME280;48842;51.046;13.796;2022-07-01T07:59:20;100133.38;;;24.62;56.89
62800;BME280;48842;51.046;13.796;2022-07-01T08:01:47;100131.03;;;24.55;57.06
62800;BME280;48842;51.046;13.796;2022-07-01T08:04:13;100127.59;;;24.53;56.92
62800;BME280;48842;51.046;13.796;2022-07-01T08:06:39;100126.03;;;24.49;56.98
62800;BME280;48842;51.046;13.796;2022-07-01T08:09:04;100121.72;;;24.47;57.33
62800;BME280;48842;51.046;13.796;2022-07-01T08:11:29;100122.59;;;24.31;57.67
62800;BME280;48842;51.046;13.796;2022-07-01T08:13:55;100139.69;;;24.29;57.71
62800;BME280;48842;51.046;13.796;2022-07-01T08:16:20;100138.41;;;24.36;57.43
62800;BME280;48842;51.046;13.796;2022-07-01T08:18:46;100144.63;;;24.36;57.26
62800;BME280;48842;51.046;13.796;2022-07-01T08:21:11;100140.19;;;24.35;57.45
62800;BME280;48842;51.046;13.796;2022-07-01T08:23:36;100148.59;;;24.29;57.63
62800;BME280;48842;51.046;13.796;2022-07-01T08:26:01;100161.13;;;24.29;57.37
62800;BME280;48842;51.046;13.796;2022-07-01T08:28:27;100154.56;;;24.18;57.50
62800;BME280;48842;51.046;13.796;2022-07-01T08:30:52;100165.94;;;24.22;57.54
62800;BME280;48842;51.046;13.796;2022-07-01T08:33:17;100167.69;;;24.23;57.42
62800;BME280;48842;51.046;13.796;2022-07-01T08:35:43;100166.63;;;24.10;57.15
62800;BME280;48842;51.046;13.796;2022-07-01T08:38:08;100172.66;;;24.13;57.14
62800;BME280;48842;51.046;13.796;2022-07-01T08:40:33;100174.66;;;24.10;57.41
62800;BME280;48842;51.046;13.796;2022-07-01T08:43:01;100171.09;;;24.09;57.28
62800;BME280;48842;51.046;13.796;2022-07-01T08:45:29;100172.09;;;24.08;57.55
62800;BME280;48842;51.046;13.796;2022-07-01T08:47:56;100176.63;;;24.06;57.50
62800;BME280;48842;51.046;13.796;2022-07-01T08:50:27;100182.34;;;24.00;57.58
62800;BME280;48842;51.046;13.796;2022-07-01T08:52:53;100187.22;;;23.92;57.77
62800;BME280;48842;51.046;13.796;2022-07-01T08:55:19;100182.19;;;23.85;58.17
62800;BME280;48842;51.046;13.796;2022-07-01T08:57:45;100179.50;;;23.85;58.42
62800;BME280;48842;51.046;13.796;2022-07-01T09:00:11;100183.88;;;23.88;58.21
62800;BME280;48842;51.046;13.796;2022-07-01T09:05:14;100189.91;;;23.92;58.15
62800;BME280;48842;51.046;13.796;2022-07-01T09:07:40;100185.19;;;23.79;57.88
62800;BME280;48842;51.046;13.796;2022-07-01T09:10:18;100189.91;;;23.74;58.17
62800;BME280;48842;51.046;13.796;2022-07-01T09:12:44;100195.25;;;23.74;57.81
62800;BME280;48842;51.046;13.796;2022-07-01T09:17:44;100210.63;;;23.70;57.20
62800;BME280;48842;51.046;13.796;2022-07-01T09:20:23;100212.53;;;23.68;57.17
62800;BME280;48842;51.046;13.796;2022-07-01T09:25:32;100226.47;;;23.40;57.11
62800;BME280;48842;51.046;13.796;2022-07-01T09:28:05;100235.81;;;23.31;57.61
62800;BME280;48842;51.046;13.796;2022-07-01T09:30:30;100239.00;;;23.03;58.23
62800;BME280;48842;51.046;13.796;2022-07-01T09:33:08;100244.00;;;22.92;58.43
62800;BME280;48842;51.046;13.796;2022-07-01T09:35:34;100250.53;;;23.04;58.06
62800;BME280;48842;51.046;13.796;2022-07-01T09:38:00;100255.19;;;23.00;58.42
62800;BME280;48842;51.046;13.796;2022-07-01T09:40:25;100256.91;;;22.82;58.89
62800;BME280;48842;51.046;13.796;2022-07-01T09:42:51;100265.63;;;22.68;59.07
62800;BME280;48842;51.046;13.796;2022-07-01T09:45:16;100271.03;;;22.66;59.13
62800;BME280;48842;51.046;13.796;2022-07-01T09:47:42;100275.72;;;22.61;59.26
62800;BME280;48842;51.046;13.796;2022-07-01T09:50:10;100281.78;;;22.65;58.85
62800;BME280;48842;51.046;13.796;2022-07-01T09:52:36;100293.47;;;22.23;59.68
62800;BME280;48842;51.046;13.796;2022-07-01T09:55:05;100296.44;;;22.37;59.47
62800;BME280;48842;51.046;13.796;2022-07-01T09:57:31;100297.06;;;22.42;59.55
62800;BME280;48842;51.046;13.796;2022-07-01T09:59:56;100298.88;;;22.42;59.52
62800;BME280;48842;51.046;13.796;2022-07-01T10:02:22;100301.41;;;22.45;59.47
62800;BME280;48842;51.046;13.796;2022-07-01T10:05:08;100297.88;;;22.44;59.51
62800;BME280;48842;51.046;13.796;2022-07-01T10:13:02;100286.00;;;22.69;58.96
62800;BME280;48842;51.046;13.796;2022-07-01T10:15:30;100295.41;;;22.78;58.91
62800;BME280;48842;51.046;13.796;2022-07-01T10:17:56;100295.13;;;22.84;58.49
62800;BME280;48842;51.046;13.796;2022-07-01T10:20:26;100303.69;;;22.91;58.40
62800;BME280;48842;51.046;13.796;2022-07-01T10:23:01;100297.19;;;22.96;58.08
62800;BME280;48842;51.046;13.796;2022-07-01T10:28:26;100288.78;;;23.04;57.67
62800;BME280;48842;51.046;13.796;2022-07-01T10:41:26;100296.56;;;23.10;57.51
62800;BME280;48842;51.046;13.796;2022-07-01T10:43:53;100279.94;;;23.04;57.59
62800;BME280;48842;51.046;13.796;2022-07-01T10:46:54;100282.59;;;23.04;57.69
62800;BME280;48842;51.046;13.796;2022-07-01T10:52:10;100268.88;;;23.11;57.52
62800;BME280;48842;51.046;13.796;2022-07-01T10:57:20;100276.91;;;23.11;57.35
62800;BME280;48842;51.046;13.796;2022-07-01T10:59:51;100277.91;;;23.09;57.33
62800;BME280;48842;51.046;13.796;2022-07-01T11:04:57;100270.91;;;23.06;57.38
62800;BME280;48842;51.046;13.796;2022-07-01T11:07:25;100281.75;;;23.03;57.29
62800;BME280;48842;51.046;13.796;2022-07-01T11:09:50;100288.16;;;22.99;57.40
62800;BME280;48842;51.046;13.796;2022-07-01T11:12:15;100295.53;;;22.94;57.42
62800;BME280;48842;51.046;13.796;2022-07-01T11:14:42;100306.09;;;22.97;57.32
62800;BME280;48842;51.046;13.796;2022-07-01T11:17:08;100315.13;;;22.94;57.48
62800;BME280;48842;51.046;13.796;2022-07-01T11:19:34;100322.25;;;22.94;57.54
62800;BME280;48842;51.046;13.796;2022-07-01T11:22:00;100318.72;;;22.93;57.27
62800;BME280;48842;51.046;13.796;2022-07-01T11:24:25;100332.84;;;22.95;57.25
62800;BME280;48842;51.046;13.796;2022-07-01T11:27:04;100337.28;;;22.96;57.20
62800;BME280;48842;51.046;13.796;2022-07-01T11:29:30;100351.09;;;22.87;57.50
62800;BME280;48842;51.046;13.796;2022-07-01T11:31:55;100348.63;;;22.82;57.85
62800;BME280;48842;51.046;13.796;2022-07-01T11:34:20;100346.28;;;22.75;58.46
62800;BME280;48842;51.046;13.796;2022-07-01T11:36:47;100350.56;;;22.60;59.13
62800;BME280;48842;51.046;13.796;2022-07-01T11:39:32;100354.06;;;22.60;59.04
62800;BME280;48842;51.046;13.796;2022-07-01T11:42:01;100356.19;;;22.54;59.53
62800;BME280;48842;51.046;13.796;2022-07-01T11:44:40;100344.13;;;22.24;59.49
62800;BME280;48842;51.046;13.796;2022-07-01T11:47:08;100347.03;;;21.97;59.56
62800;BME280;48842;51.046;13.796;2022-07-01T11:49:43;100358.06;;;21.90;59.61
62800;BME280;48842;51.046;13.796;2022-07-01T11:52:10;100363.03;;;21.77;59.63
62800;BME280;48842;51.046;13.796;2022-07-01T11:54:38;100374.38;;;21.61;60.05
62800;BME280;48842;51.046;13.796;2022-07-01T11:57:12;100369.81;;;21.64;60.42
62800;BME280;48842;51.046;13.796;2022-07-01T11:59:39;100367.78;;;21.70;60.14
62800;BME280;48842;51.046;13.796;2022-07-01T12:02:05;100376.56;;;21.72;60.13
62800;BME280;48842;51.046;13.796;2022-07-01T12:04:30;100389.53;;;21.59;61.95
62800;BME280;48842;51.046;13.796;2022-07-01T12:06:56;100395.03;;;21.33;62.52
62800;BME280;48842;51.046;13.796;2022-07-01T12:09:23;100375.53;;;21.32;62.22
62800;BME280;48842;51.046;13.796;2022-07-01T12:11:50;100368.38;;;21.33;62.14
62800;BME280;48842;51.046;13.796;2022-07-01T12:16:54;100365.66;;;21.34;63.06
62800;BME280;48842;51.046;13.796;2022-07-01T12:19:19;100364.59;;;21.38;63.02
62800;BME280;48842;51.046;13.796;2022-07-01T12:21:50;100354.75;;;21.40;63.64
62800;BME280;48842;51.046;13.796;2022-07-01T12:24:16;100362.06;;;21.35;63.33
62800;BME280;48842;51.046;13.796;2022-07-01T12:29:25;100366.91;;;21.25;63.90
62800;BME280;48842;51.046;13.796;2022-07-01T12:31:58;100364.16;;;21.27;63.88
62800;BME280;48842;51.046;13.796;2022-07-01T12:34:53;100371.13;;;21.31;64.75
62800;BME280;48842;51.046;13.796;2022-07-01T12:37:29;100377.25;;;21.33;64.11
62800;BME280;48842;51.046;13.796;2022-07-01T12:40:06;100382.75;;;21.28;64.18
62800;BME280;48842;51.046;13.796;2022-07-01T12:42:40;100379.91;;;21.33;64.06
62800;BME280;48842;51.046;13.796;2022-07-01T12:45:09;100385.63;;;21.24;63.90
62800;BME280;48842;51.046;13.796;2022-07-01T12:47:40;100383.06;;;21.21;64.33
62800;BME280;48842;51.046;13.796;2022-07-01T12:50:20;100388.22;;;21.25;64.54
62800;BME280;48842;51.046;13.796;2022-07-01T12:53:19;100396.16;;;21.27;64.54
62800;BME280;48842;51.046;13.796;2022-07-01T12:55:47;100391.75;;;21.26;64.33
62800;BME280;48842;51.046;13.796;2022-07-01T12:58:21;100401.84;;;21.18;64.52
62800;BME280;48842;51.046;13.796;2022-07-01T13:00:48;100397.22;;;20.99;64.91
62800;BME280;48842;51.046;13.796;2022-07-01T13:03:19;100402.44;;;21.02;64.93
62800;BME280;48842;51.046;13.796;2022-07-01T13:05:45;100404.88;;;21.08;64.78
62800;BME280;48842;51.046;13.796;2022-07-01T13:08:10;100410.75;;;21.17;65.03
62800;BME280;48842;51.046;13.796;2022-07-01T13:10:36;100419.34;;;21.25;65.31
62800;BME280;48842;51.046;13.796;2022-07-01T13:13:02;100401.34;;;21.30;65.21
62800;BME280;48842;51.046;13.796;2022-07-01T13:15:27;100408.56;;;21.28;64.48
62800;BME280;48842;51.046;13.796;2022-07-01T13:17:53;100423.16;;;21.18;64.27
62800;BME280;48842;51.046;13.796;2022-07-01T13:20:18;100429.25;;;20.98;63.98
62800;BME280;48842;51.046;13.796;2022-07-01T13:22:44;100416.78;;;20.98;64.47
62800;BME280;48842;51.046;13.796;2022-07-01T13:25:10;100422.13;;;20.98;64.64